sensor_id;sensor_type;location;lat;lon;timestamp;pressure;altitude;pressure_sealevel;temperature;humidity
12636;BME280;6383;50.830;7.210;2023-02-03T00:00:14;101849.50;;;10.48;80.89
12636;BME280;6383;50.830;7.210;2023-02-03T00:02:43;101863.09;;;10.48;80.65
12636;BME280;6383;50.830;7.210;2023-02-03T00:05:12;101858.22;;;10.50;80.85
12636;BME280;6383;50.830;7.210;2023-02-03T00:07:41;101844.88;;;10.49;80.97
12636;BME280;6383;50.830;7.210;2023-02-03T00:10:11;101842.16;;;10.49;80.53
12636;BME280;6383;50.830;7.210;2023-02-03T00:12:40;101833.97;;;10.49;80.48
12636;BME280;6383;50.830;7.210;2023-02-03T00:15:10;101836.44;;;10.50;80.78
12636;BME280;6383;50.830;7.210;2023-02-03T00:17:40;101827.72;;;10.48;81.13
12636;BME280;6383;50.830;7.210;2023-02-03T00:20:10;101817.66;;;10.49;81.37
12636;BME280;6383;50.830;7.210;2023-02-03T00:22:38;101817.91;;;10.47;81.52
12636;BME280;6383;50.830;7.210;2023-02-03T00:25:07;101808.38;;;10.45;81.57
12636;BME280;6383;50.830;7.210;2023-02-03T00:27:35;101809.47;;;10.44;81.58
12636;BME280;6383;50.830;7.210;2023-02-03T00:30:03;101804.28;;;10.42;81.47
12636;BME280;6383;50.830;7.210;2023-02-03T00:32:30;101807.84;;;10.43;81.57
12636;BME280;6383;50.830;7.210;2023-02-03T00:34:59;101816.00;;;10.43;81.64
12636;BME280;6383;50.830;7.210;2023-02-03T00:37:28;101807.00;;;10.42;81.52
12636;BME280;6383;50.830;7.210;2023-02-03T00:39:56;101803.22;;;10.43;81.60
12636;BME280;6383;50.830;7.210;2023-02-03T00:42:25;101786.88;;;10.43;81.73
12636;BME280;6383;50.830;7.210;2023-02-03T00:44:54;101785.78;;;10.44;81.20
12636;BME280;6383;50.830;7.210;2023-02-03T00:47:21;101782.25;;;10.44;81.47
12636;BME280;6383;50.830;7.210;2023-02-03T00:49:50;101787.44;;;10.45;81.04
12636;BME280;6383;50.830;7.210;2023-02-03T00:52:20;101792.59;;;10.47;81.01
12636;BME280;6383;50.830;7.210;2023-02-03T00:54:49;101781.72;;;10.47;80.71
12636;BME280;6383;50.830;7.210;2023-02-03T00:57:18;101783.34;;;10.48;80.99
12636;BME280;6383;50.830;7.210;2023-02-03T00:59:47;101793.41;;;10.47;80.84
12636;BME280;6383;50.830;7.210;2023-02-03T01:02:15;101792.34;;;10.48;80.43
12636;BME280;6383;50.830;7.210;2023-02-03T01:04:44;101772.19;;;10.49;80.59
12636;BME280;6383;50.830;7.210;2023-02-03T01:07:13;101771.13;;;10.50;80.44
12636;BME280;6383;50.830;7.210;2023-02-03T01:09:44;101782.56;;;10.52;80.47
12636;BME280;6383;50.830;7.210;2023-02-03T01:12:11;101767.31;;;10.51;80.34
12636;BME280;6383;50.830;7.210;2023-02-03T01:14:39;101782.56;;;10.52;80.62
12636;BME280;6383;50.830;7.210;2023-02-03T01:17:08;101764.03;;;10.54;80.17
12636;BME280;6383;50.830;7.210;2023-02-03T01:19:38;101762.94;;;10.55;80.19
12636;BME280;6383;50.830;7.210;2023-02-03T01:22:06;101775.47;;;10.56;80.26
12636;BME280;6383;50.830;7.210;2023-02-03T01:24:35;101776.28;;;10.57;79.89
12636;BME280;6383;50.830;7.210;2023-02-03T01:27:05;101764.31;;;10.58;79.99
12636;BME280;6383;50.830;7.210;2023-02-03T01:29:34;101767.84;;;10.58;80.18
12636;BME280;6383;50.830;7.210;2023-02-03T01:32:02;101778.47;;;10.60;80.07
12636;BME280;6383;50.830;7.210;2023-02-03T01:34:30;101787.44;;;10.60;79.91
12636;BME280;6383;50.830;7.210;2023-02-03T01:36:59;101798.06;;;10.62;79.51
12636;BME280;6383;50.830;7.210;2023-02-03T01:39:28;101804.34;;;10.63;79.44
12636;BME280;6383;50.830;7.210;2023-02-03T01:41:57;101808.69;;;10.64;79.78
12636;BME280;6383;50.830;7.210;2023-02-03T01:44:39;101823.13;;;10.64;79.40
12636;BME280;6383;50.830;7.210;2023-02-03T01:47:26;101818.50;;;10.65;79.57
12636;BME280;6383;50.830;7.210;2023-02-03T01:50:03;101813.06;;;10.65;79.03
12636;BME280;6383;50.830;7.210;2023-02-03T01:52:32;101810.88;;;10.67;79.18
12636;BME280;6383;50.830;7.210;2023-02-03T01:55:04;101807.34;;;10.66;79.36
12636;BME280;6383;50.830;7.210;2023-02-03T01:57:39;101810.88;;;10.67;78.77
12636;BME280;6383;50.830;7.210;2023-02-03T02:00:11;101815.50;;;10.66;78.95
12636;BME280;6383;50.830;7.210;2023-02-03T02:02:40;101822.59;;;10.67;78.98
12636;BME280;6383;50.830;7.210;2023-02-03T02:05:14;101819.56;;;10.69;78.60
12636;BME280;6383;50.830;7.210;2023-02-03T02:07:44;101833.50;;;10.67;78.56
12636;BME280;6383;50.830;7.210;2023-02-03T02:10:14;101838.63;;;10.69;78.58
12636;BME280;6383;50.830;7.210;2023-02-03T02:12:42;101833.19;;;10.69;78.76
12636;BME280;6383;50.830;7.210;2023-02-03T02:15:13;101826.66;;;10.70;78.53
12636;BME280;6383;50.830;7.210;2023-02-03T02:18:00;101810.31;;;10.70;78.80
12636;BME280;6383;50.830;7.210;2023-02-03T02:20:37;101802.97;;;10.70;78.64
12636;BME280;6383;50.830;7.210;2023-02-03T02:23:35;101807.59;;;10.70;78.15
12636;BME280;6383;50.830;7.210;2023-02-03T02:29:33;101796.19;;;10.68;78.27
12636;BME280;6383;50.830;7.210;2023-02-03T02:32:19;101807.06;;;10.68;78.40
12636;BME280;6383;50.830;7.210;2023-02-03T02:35:00;101800.50;;;10.69;78.32
12636;BME280;6383;50.830;7.210;2023-02-03T02:37:39;101804.88;;;10.70;78.65
12636;BME280;6383;50.830;7.210;2023-02-03T02:40:20;101796.72;;;10.70;78.20
12636;BME280;6383;50.830;7.210;2023-02-03T02:43:00;101793.72;;;10.71;78.20
12636;BME280;6383;50.830;7.210;2023-02-03T02:45:47;101776.56;;;10.71;78.07
12636;BME280;6383;50.830;7.210;2023-02-03T02:48:21;101766.50;;;10.71;77.73
12636;BME280;6383;50.830;7.210;2023-02-03T02:50:55;101770.84;;;10.72;77.94
12636;BME280;6383;50.830;7.210;2023-02-03T02:53:28;101765.66;;;10.71;77.98
12636;BME280;6383;50.830;7.210;2023-02-03T02:56:02;101753.97;;;10.70;77.41
12636;BME280;6383;50.830;7.210;2023-02-03T02:58:34;101765.66;;;10.71;77.82
12636;BME280;6383;50.830;7.210;2023-02-03T03:01:03;101750.41;;;10.70;77.43
12636;BME280;6383;50.830;7.210;2023-02-03T03:03:32;101757.50;;;10.71;77.58
12636;BME280;6383;50.830;7.210;2023-02-03T03:06:02;101751.50;;;10.69;77.24
12636;BME280;6383;50.830;7.210;2023-02-03T03:08:35;101767.56;;;10.70;77.16
12636;BME280;6383;50.830;7.210;2023-02-03T03:11:05;101775.22;;;10.68;77.24
12636;BME280;6383;50.830;7.210;2023-02-03T03:13:38;101776.81;;;10.69;77.04
12636;BME280;6383;50.830;7.210;2023-02-03T03:16:09;101769.22;;;10.71;77.06
12636;BME280;6383;50.830;7.210;2023-02-03T03:18:43;101768.38;;;10.71;76.72
12636;BME280;6383;50.830;7.210;2023-02-03T03:21:18;101776.56;;;10.71;76.83
12636;BME280;6383;50.830;7.210;2023-02-03T03:23:49;101757.78;;;10.69;76.57
12636;BME280;6383;50.830;7.210;2023-02-03T03:26:23;101763.50;;;10.68;76.25
12636;BME280;6383;50.830;7.210;2023-02-03T03:29:02;101754.22;;;10.69;76.14
12636;BME280;6383;50.830;7.210;2023-02-03T03:31:34;101757.78;;;10.69;76.64
12636;BME280;6383;50.830;7.210;2023-02-03T03:34:04;101748.50;;;10.70;76.49
12636;BME280;6383;50.830;7.210;2023-02-03T03:36:37;101758.59;;;10.70;76.54
12636;BME280;6383;50.830;7.210;2023-02-03T03:39:12;101762.13;;;10.70;76.26
12636;BME280;6383;50.830;7.210;2023-02-03T03:41:51;101763.22;;;10.69;76.32
12636;BME280;6383;50.830;7.210;2023-02-03T03:44:25;101764.84;;;10.70;76.37
12636;BME280;6383;50.830;7.210;2023-02-03T03:46:58;101764.03;;;10.70;76.26
12636;BME280;6383;50.830;7.210;2023-02-03T03:49:33;101761.31;;;10.70;76.47
12636;BME280;6383;50.830;7.210;2023-02-03T03:52:06;101768.38;;;10.71;76.11
12636;BME280;6383;50.830;7.210;2023-02-03T03:54:35;101768.38;;;10.71;76.09
12636;BME280;6383;50.830;7.210;2023-02-03T03:57:08;101780.09;;;10.71;75.79
12636;BME280;6383;50.830;7.210;2023-02-03T03:59:40;101764.34;;;10.68;75.98
12636;BME280;6383;50.830;7.210;2023-02-03T04:02:11;101766.50;;;10.66;75.87
12636;BME280;6383;50.830;7.210;2023-02-03T04:04:42;101765.94;;;10.69;76.04
12636;BME280;6383;50.830;7.210;2023-02-03T04:07:12;101764.03;;;10.70;76.40
12636;BME280;6383;50.830;7.210;2023-02-03T04:09:41;101766.50;;;10.71;76.41
12636;BME280;6383;50.830;7.210;2023-02-03T04:12:22;101757.78;;;10.69;75.46
12636;BME280;6383;50.830;7.210;2023-02-03T04:14:51;101768.38;;;10.71;75.96
12636;BME280;6383;50.830;7.210;2023-02-03T04:17:20;101776.28;;;10.72;76.33
12636;BME280;6383;50.830;7.210;2023-02-03T04:19:50;101758.06;;;10.73;76.40
12636;BME280;6383;50.830;7.210;2023-02-03T04:22:19;101757.22;;;10.72;76.00
12636;BME280;6383;50.830;7.210;2023-02-03T04:24:47;101739.00;;;10.73;76.17
12636;BME280;6383;50.830;7.210;2023-02-03T04:27:15;101746.06;;;10.74;75.51
12636;BME280;6383;50.830;7.210;2023-02-03T04:29:44;101727.84;;;10.74;75.92
12636;BME280;6383;50.830;7.210;2023-02-03T04:32:13;101729.72;;;10.74;75.95
12636;BME280;6383;50.830;7.210;2023-02-03T04:34:40;101746.06;;;10.74;75.92
12636;BME280;6383;50.830;7.210;2023-02-03T04:37:09;101746.88;;;10.74;75.83
12636;BME280;6383;50.830;7.210;2023-02-03T04:39:38;101742.53;;;10.73;75.98
12636;BME280;6383;50.830;7.210;2023-02-03T04:42:06;101754.25;;;10.74;75.82
12636;BME280;6383;50.830;7.210;2023-02-03T04:44:35;101745.25;;;10.73;75.94
12636;BME280;6383;50.830;7.210;2023-02-03T04:47:03;101736.28;;;10.73;75.66
12636;BME280;6383;50.830;7.210;2023-02-03T04:49:31;101731.91;;;10.72;75.50
12636;BME280;6383;50.830;7.210;2023-02-03T04:52:00;101727.28;;;10.72;75.59
12636;BME280;6383;50.830;7.210;2023-02-03T04:54:30;101731.63;;;10.73;74.93
12636;BME280;6383;50.830;7.210;2023-02-03T04:56:59;101731.91;;;10.72;75.48
12636;BME280;6383;50.830;7.210;2023-02-03T04:59:26;101728.09;;;10.73;75.30
12636;BME280;6383;50.830;7.210;2023-02-03T05:01:55;101741.44;;;10.74;75.33
12636;BME280;6383;50.830;7.210;2023-02-03T05:04:24;101742.25;;;10.75;75.26
12636;BME280;6383;50.830;7.210;2023-02-03T05:06:53;101744.97;;;10.75;75.18
12636;BME280;6383;50.830;7.210;2023-02-03T05:09:23;101739.53;;;10.75;74.84
12636;BME280;6383;50.830;7.210;2023-02-03T05:11:52;101742.00;;;10.76;75.19
12636;BME280;6383;50.830;7.210;2023-02-03T05:14:21;101739.28;;;10.76;74.79
12636;BME280;6383;50.830;7.210;2023-02-03T05:16:50;101738.44;;;10.76;74.97
12636;BME280;6383;50.830;7.210;2023-02-03T05:19:19;101733.81;;;10.76;74.91
12636;BME280;6383;50.830;7.210;2023-02-03T05:21:47;101742.81;;;10.77;75.06
12636;BME280;6383;50.830;7.210;2023-02-03T05:24:14;101756.44;;;10.77;74.71
12636;BME280;6383;50.830;7.210;2023-02-03T05:26:50;101751.78;;;10.77;74.51
12636;BME280;6383;50.830;7.210;2023-02-03T05:29:20;101749.88;;;10.78;74.61
12636;BME280;6383;50.830;7.210;2023-02-03T05:31:55;101754.53;;;10.77;74.65
12636;BME280;6383;50.830;7.210;2023-02-03T05:34:25;101735.47;;;10.77;74.64
12636;BME280;6383;50.830;7.210;2023-02-03T05:36:54;101741.72;;;10.78;74.77
12636;BME280;6383;50.830;7.210;2023-02-03T05:39:23;101730.00;;;10.77;74.61
12636;BME280;6383;50.830;7.210;2023-02-03T05:41:50;101736.28;;;10.78;74.72
12636;BME280;6383;50.830;7.210;2023-02-03T05:44:23;101732.75;;;10.77;74.58
12636;BME280;6383;50.830;7.210;2023-02-03T05:46:54;101739.00;;;10.78;74.66
12636;BME280;6383;50.830;7.210;2023-02-03T05:49:22;101728.38;;;10.76;74.97
12636;BME280;6383;50.830;7.210;2023-02-03T05:51:51;101735.47;;;10.77;74.50
12636;BME280;6383;50.830;7.210;2023-02-03T05:54:21;101724.56;;;10.77;74.67
12636;BME280;6383;50.830;7.210;2023-02-03T05:56:49;101718.31;;;10.77;74.15
12636;BME280;6383;50.830;7.210;2023-02-03T05:59:17;101728.38;;;10.76;74.26
12636;BME280;6383;50.830;7.210;2023-02-03T06:01:48;101727.56;;;10.76;74.16
12636;BME280;6383;50.830;7.210;2023-02-03T06:04:16;101722.94;;;10.76;73.93
12636;BME280;6383;50.830;7.210;2023-02-03T06:06:44;101734.63;;;10.77;74.13
12636;BME280;6383;50.830;7.210;2023-02-03T06:09:13;101728.94;;;10.78;74.24
12636;BME280;6383;50.830;7.210;2023-02-03T06:11:40;101731.38;;;10.80;73.90
12636;BME280;6383;50.830;7.210;2023-02-03T06:14:10;101729.75;;;10.79;73.88
12636;BME280;6383;50.830;7.210;2023-02-03T06:16:40;101737.66;;;10.80;74.07
12636;BME280;6383;50.830;7.210;2023-02-03T06:19:09;101744.47;;;10.83;73.96
12636;BME280;6383;50.830;7.210;2023-02-03T06:21:38;101743.63;;;10.82;73.87
12636;BME280;6383;50.830;7.210;2023-02-03T06:24:08;101740.91;;;10.82;73.81
12636;BME280;6383;50.830;7.210;2023-02-03T06:26:37;101749.09;;;10.82;73.67
12636;BME280;6383;50.830;7.210;2023-02-03T06:29:06;101746.34;;;10.82;73.71
12636;BME280;6383;50.830;7.210;2023-02-03T06:31:34;101753.41;;;10.83;73.34
12636;BME280;6383;50.830;7.210;2023-02-03T06:34:01;101739.78;;;10.83;73.33
12636;BME280;6383;50.830;7.210;2023-02-03T06:36:32;101719.66;;;10.84;73.32
12636;BME280;6383;50.830;7.210;2023-02-03T06:38:59;101739.78;;;10.83;73.61
12636;BME280;6383;50.830;7.210;2023-02-03T06:41:28;101755.88;;;10.85;73.28
12636;BME280;6383;50.830;7.210;2023-02-03T06:43:57;101755.88;;;10.85;73.28
12636;BME280;6383;50.830;7.210;2023-02-03T06:46:25;101766.75;;;10.85;72.94
12636;BME280;6383;50.830;7.210;2023-02-03T06:48:56;101765.44;;;10.82;72.97
12636;BME280;6383;50.830;7.210;2023-02-03T06:51:23;101767.03;;;10.83;72.86
12636;BME280;6383;50.830;7.210;2023-02-03T06:53:52;101760.78;;;10.83;72.50
12636;BME280;6383;50.830;7.210;2023-02-03T06:56:21;101768.66;;;10.84;72.67
12636;BME280;6383;50.830;7.210;2023-02-03T06:58:50;101763.22;;;10.84;72.71
12636;BME280;6383;50.830;7.210;2023-02-03T07:01:19;101763.22;;;10.84;72.54
12636;BME280;6383;50.830;7.210;2023-02-03T07:03:48;101763.22;;;10.84;72.59
12636;BME280;6383;50.830;7.210;2023-02-03T07:06:16;101757.78;;;10.84;72.61
12636;BME280;6383;50.830;7.210;2023-02-03T07:08:45;101751.25;;;10.85;72.20
12636;BME280;6383;50.830;7.210;2023-02-03T07:11:14;101753.97;;;10.85;72.52
12636;BME280;6383;50.830;7.210;2023-02-03T07:13:42;101751.25;;;10.85;72.44
12636;BME280;6383;50.830;7.210;2023-02-03T07:16:11;101758.59;;;10.85;72.23
12636;BME280;6383;50.830;7.210;2023-02-03T07:18:40;101756.69;;;10.85;72.62
12636;BME280;6383;50.830;7.210;2023-02-03T07:21:09;101752.06;;;10.86;72.48
12636;BME280;6383;50.830;7.210;2023-02-03T07:23:38;101766.50;;;10.86;72.32
12636;BME280;6383;50.830;7.210;2023-02-03T07:26:09;101752.31;;;10.84;72.18
12636;BME280;6383;50.830;7.210;2023-02-03T07:28:39;101753.97;;;10.85;72.02
12636;BME280;6383;50.830;7.210;2023-02-03T07:31:07;101735.97;;;10.84;72.24
12636;BME280;6383;50.830;7.210;2023-02-03T07:33:37;101734.34;;;10.83;72.49
12636;BME280;6383;50.830;7.210;2023-02-03T07:36:08;101751.25;;;10.85;72.43
12636;BME280;6383;50.830;7.210;2023-02-03T07:38:37;101743.88;;;10.86;72.38
12636;BME280;6383;50.830;7.210;2023-02-03T07:41:06;101758.31;;;10.86;72.34
12636;BME280;6383;50.830;7.210;2023-02-03T07:43:35;101774.38;;;10.88;72.51
12636;BME280;6383;50.830;7.210;2023-02-03T07:46:05;101765.94;;;10.89;72.41
12636;BME280;6383;50.830;7.210;2023-02-03T07:48:33;101779.56;;;10.89;72.37
12636;BME280;6383;50.830;7.210;2023-02-03T07:51:01;101765.94;;;10.89;72.63
12636;BME280;6383;50.830;7.210;2023-02-03T07:53:30;101768.41;;;10.91;72.34
12636;BME280;6383;50.830;7.210;2023-02-03T07:55:59;101759.16;;;10.92;72.46
12636;BME280;6383;50.830;7.210;2023-02-03T07:58:30;101765.41;;;10.92;72.29
12636;BME280;6383;50.830;7.210;2023-02-03T08:00:58;101767.06;;;10.93;72.29
12636;BME280;6383;50.830;7.210;2023-02-03T08:03:28;101776.84;;;10.94;72.52
12636;BME280;6383;50.830;7.210;2023-02-03T08:05:57;101785.84;;;10.95;72.39
12636;BME280;6383;50.830;7.210;2023-02-03T08:08:25;101792.94;;;10.96;72.33
12636;BME280;6383;50.830;7.210;2023-02-03T08:10:54;101778.22;;;10.97;72.24
12636;BME280;6383;50.830;7.210;2023-02-03T08:13:24;101784.50;;;10.98;72.07
12636;BME280;6383;50.830;7.210;2023-02-03T08:15:51;101782.59;;;10.98;72.22
12636;BME280;6383;50.830;7.210;2023-02-03T08:18:20;101785.31;;;10.98;72.15
12636;BME280;6383;50.830;7.210;2023-02-03T08:20:51;101781.47;;;10.99;72.15
12636;BME280;6383;50.830;7.210;2023-02-03T08:23:20;101791.28;;;11.00;72.00
12636;BME280;6383;50.830;7.210;2023-02-03T08:25:50;101777.66;;;11.00;71.99
12636;BME280;6383;50.830;7.210;2023-02-03T08:28:19;101768.13;;;11.03;72.10
12636;BME280;6383;50.830;7.210;2023-02-03T08:30:49;101777.38;;;11.02;72.08
12636;BME280;6383;50.830;7.210;2023-02-03T08:33:17;101774.38;;;11.03;72.06
12636;BME280;6383;50.830;7.210;2023-02-03T08:35:47;101775.19;;;11.04;72.16
12636;BME280;6383;50.830;7.210;2023-02-03T08:38:18;101788.81;;;11.04;71.88
12636;BME280;6383;50.830;7.210;2023-02-03T08:40:47;101794.28;;;11.04;71.68
12636;BME280;6383;50.830;7.210;2023-02-03T08:43:16;101804.09;;;11.05;72.07
12636;BME280;6383;50.830;7.210;2023-02-03T08:45:44;101799.44;;;11.05;72.05
12636;BME280;6383;50.830;7.210;2023-02-03T08:48:13;101808.44;;;11.06;71.83
12636;BME280;6383;50.830;7.210;2023-02-03T08:50:42;101793.19;;;11.05;72.20
12636;BME280;6383;50.830;7.210;2023-02-03T08:53:19;101802.19;;;11.05;72.13
12636;BME280;6383;50.830;7.210;2023-02-03T08:55:47;101803.81;;;11.06;72.06
12636;BME280;6383;50.830;7.210;2023-02-03T08:58:16;101801.38;;;11.10;72.46
12636;BME280;6383;50.830;7.210;2023-02-03T09:00:45;101806.81;;;11.10;72.31
12636;BME280;6383;50.830;7.210;2023-02-03T09:03:16;101801.91;;;11.12;72.65
12636;BME280;6383;50.830;7.210;2023-02-03T09:05:45;101807.38;;;11.12;72.48
12636;BME280;6383;50.830;7.210;2023-02-03T09:08:13;101804.63;;;11.12;72.07
12636;BME280;6383;50.830;7.210;2023-02-03T09:10:44;101801.91;;;11.12;72.71
12636;BME280;6383;50.830;7.210;2023-02-03T09:13:11;101803.00;;;11.11;72.61
12636;BME280;6383;50.830;7.210;2023-02-03T09:15:39;101818.53;;;11.10;72.93
12636;BME280;6383;50.830;7.210;2023-02-03T09:18:08;101789.91;;;11.08;73.21
12636;BME280;6383;50.830;7.210;2023-02-03T09:20:37;101801.91;;;11.07;73.34
12636;BME280;6383;50.830;7.210;2023-02-03T09:23:06;101799.44;;;11.05;73.50
12636;BME280;6383;50.830;7.210;2023-02-03T09:25:34;101805.72;;;11.06;73.47
12636;BME280;6383;50.830;7.210;2023-02-03T09:28:04;101794.28;;;11.04;73.29
12636;BME280;6383;50.830;7.210;2023-02-03T09:30:32;101794.00;;;11.00;73.63
12636;BME280;6383;50.830;7.210;2023-02-03T09:33:00;101808.69;;;10.99;73.92
12636;BME280;6383;50.830;7.210;2023-02-03T09:35:29;101786.91;;;10.99;74.04
12636;BME280;6383;50.830;7.210;2023-02-03T09:37:57;101790.44;;;11.00;74.29
12636;BME280;6383;50.830;7.210;2023-02-03T09:40:32;101784.19;;;10.99;74.25
12636;BME280;6383;50.830;7.210;2023-02-03T09:43:12;101786.38;;;10.97;74.16
12636;BME280;6383;50.830;7.210;2023-02-03T09:45:44;101788.31;;;10.97;73.98
12636;BME280;6383;50.830;7.210;2023-02-03T09:48:15;101781.22;;;10.95;74.08
12636;BME280;6383;50.830;7.210;2023-02-03T09:50:47;101786.66;;;10.95;74.60
12636;BME280;6383;50.830;7.210;2023-02-03T09:53:25;101779.56;;;10.94;74.72
12636;BME280;6383;50.830;7.210;2023-02-03T09:55:56;101783.94;;;10.95;74.77
12636;BME280;6383;50.830;7.210;2023-02-03T09:58:31;101778.75;;;10.94;75.25
12636;BME280;6383;50.830;7.210;2023-02-03T10:01:01;101774.66;;;10.91;75.28
12636;BME280;6383;50.830;7.210;2023-02-03T10:03:35;101786.38;;;10.92;74.88
12636;BME280;6383;50.830;7.210;2023-02-03T10:06:15;101786.66;;;10.90;75.19
12636;BME280;6383;50.830;7.210;2023-02-03T10:09:10;101787.75;;;10.89;75.09
12636;BME280;6383;50.830;7.210;2023-02-03T10:12:04;101794.81;;;10.90;75.74
12636;BME280;6383;50.830;7.210;2023-02-03T10:14:51;101803.00;;;10.90;76.02
12636;BME280;6383;50.830;7.210;2023-02-03T10:17:29;101795.91;;;10.89;75.83
12636;BME280;6383;50.830;7.210;2023-02-03T10:20:03;101808.72;;;10.89;75.85
12636;BME280;6383;50.830;7.210;2023-02-03T10:22:36;101809.53;;;10.89;76.17
12636;BME280;6383;50.830;7.210;2023-02-03T10:25:15;101835.13;;;10.88;76.68
12636;BME280;6383;50.830;7.210;2023-02-03T10:27:48;101831.84;;;10.86;76.14
12636;BME280;6383;50.830;7.210;2023-02-03T10:30:20;101841.13;;;10.85;76.84
12636;BME280;6383;50.830;7.210;2023-02-03T10:32:53;101843.84;;;10.85;77.37
12636;BME280;6383;50.830;7.210;2023-02-03T10:35:27;101848.47;;;10.85;77.19
12636;BME280;6383;50.830;7.210;2023-02-03T10:38:00;101832.38;;;10.83;77.66
12636;BME280;6383;50.830;7.210;2023-02-03T10:40:27;101828.06;;;10.82;77.87
12636;BME280;6383;50.830;7.210;2023-02-03T10:42:56;101828.31;;;10.81;78.28
12636;BME280;6383;50.830;7.210;2023-02-03T10:45:42;101816.88;;;10.74;77.60
12636;BME280;6383;50.830;7.210;2023-02-03T10:48:14;101812.78;;;10.71;78.46
12636;BME280;6383;50.830;7.210;2023-02-03T10:50:47;101821.75;;;10.72;78.89
12636;BME280;6383;50.830;7.210;2023-02-03T10:53:24;101824.47;;;10.72;78.68
12636;BME280;6383;50.830;7.210;2023-02-03T10:56:02;101822.31;;;10.74;79.33
12636;BME280;6383;50.830;7.210;2023-02-03T10:58:33;101804.06;;;10.74;79.45
12636;BME280;6383;50.830;7.210;2023-02-03T11:01:09;101817.41;;;10.76;79.50
12636;BME280;6383;50.830;7.210;2023-02-03T11:03:37;101797.28;;;10.77;79.58
12636;BME280;6383;50.830;7.210;2023-02-03T11:06:11;101804.63;;;10.76;79.85
12636;BME280;6383;50.830;7.210;2023-02-03T11:08:42;101799.19;;;10.76;79.87
12636;BME280;6383;50.830;7.210;2023-02-03T11:11:13;101798.09;;;10.77;79.99
12636;BME280;6383;50.830;7.210;2023-02-03T11:13:41;101803.28;;;10.79;80.06
12636;BME280;6383;50.830;7.210;2023-02-03T11:16:13;101812.81;;;10.81;80.42
12636;BME280;6383;50.830;7.210;2023-02-03T11:18:51;101799.47;;;10.80;80.26
12636;BME280;6383;50.830;7.210;2023-02-03T11:21:22;101795.66;;;10.81;80.69
12636;BME280;6383;50.830;7.210;2023-02-03T11:23:54;101793.75;;;10.81;80.62
12636;BME280;6383;50.830;7.210;2023-02-03T11:26:26;101801.91;;;10.81;80.82
12636;BME280;6383;50.830;7.210;2023-02-03T11:28:58;101798.09;;;10.82;80.97
12636;BME280;6383;50.830;7.210;2023-02-03T11:31:31;101793.19;;;10.84;80.98
12636;BME280;6383;50.830;7.210;2023-02-03T11:34:03;101793.72;;;10.86;81.11
12636;BME280;6383;50.830;7.210;2023-02-03T11:36:33;101783.66;;;10.87;81.36
12636;BME280;6383;50.830;7.210;2023-02-03T11:39:16;101770.84;;;10.87;80.73
12636;BME280;6383;50.830;7.210;2023-02-03T11:41:45;101776.28;;;10.87;81.44
12636;BME280;6383;50.830;7.210;2023-02-03T11:44:17;101783.38;;;10.88;81.26
12636;BME280;6383;50.830;7.210;2023-02-03T11:46:52;101791.81;;;10.87;81.22
12636;BME280;6383;50.830;7.210;2023-02-03T11:49:56;101795.38;;;10.87;81.10
12636;BME280;6383;50.830;7.210;2023-02-03T11:52:46;101807.34;;;10.86;81.27
12636;BME280;6383;50.830;7.210;2023-02-03T11:55:32;101801.06;;;10.86;81.65
12636;BME280;6383;50.830;7.210;2023-02-03T11:58:35;101801.91;;;10.86;81.44
12636;BME280;6383;50.830;7.210;2023-02-03T12:01:12;101805.72;;;10.85;81.71
12636;BME280;6383;50.830;7.210;2023-02-03T12:04:00;101799.16;;;10.86;81.61
12636;BME280;6383;50.830;7.210;2023-02-03T12:09:36;101800.25;;;10.85;81.87
12636;BME280;6383;50.830;7.210;2023-02-03T12:12:24;101800.53;;;10.84;82.31
12636;BME280;6383;50.830;7.210;2023-02-03T12:15:03;101789.38;;;10.85;82.07
12636;BME280;6383;50.830;7.210;2023-02-03T12:17:52;101791.28;;;10.85;81.93
12636;BME280;6383;50.830;7.210;2023-02-03T12:20:33;101791.00;;;10.86;82.27
12636;BME280;6383;50.830;7.210;2023-02-03T12:23:17;101793.47;;;10.88;82.30
12636;BME280;6383;50.830;7.210;2023-02-03T12:25:57;101793.72;;;10.86;82.55
12636;BME280;6383;50.830;7.210;2023-02-03T12:28:43;101789.09;;;10.87;82.42
12636;BME280;6383;50.830;7.210;2023-02-03T12:31:16;101795.09;;;10.89;82.77
12636;BME280;6383;50.830;7.210;2023-02-03T12:33:59;101794.00;;;10.90;82.64
12636;BME280;6383;50.830;7.210;2023-02-03T12:36:42;101789.38;;;10.90;82.67
12636;BME280;6383;50.830;7.210;2023-02-03T12:39:18;101794.81;;;10.90;82.35
12636;BME280;6383;50.830;7.210;2023-02-03T12:41:55;101784.75;;;10.91;82.64
12636;BME280;6383;50.830;7.210;2023-02-03T12:44:31;101782.84;;;10.91;82.49
12636;BME280;6383;50.830;7.210;2023-02-03T12:47:05;101779.84;;;10.93;82.64
12636;BME280;6383;50.830;7.210;2023-02-03T12:49:44;101787.19;;;10.92;82.42
12636;BME280;6383;50.830;7.210;2023-02-03T12:52:27;101795.91;;;10.94;82.48
12636;BME280;6383;50.830;7.210;2023-02-03T12:55:07;101810.63;;;10.93;82.74
12636;BME280;6383;50.830;7.210;2023-02-03T12:57:57;101793.19;;;10.94;82.59
12636;BME280;6383;50.830;7.210;2023-02-03T13:00:44;101789.13;;;10.97;82.38
12636;BME280;6383;50.830;7.210;2023-02-03T13:03:18;101782.84;;;10.97;82.48
12636;BME280;6383;50.830;7.210;2023-02-03T13:06:06;101782.59;;;10.98;82.49
12636;BME280;6383;50.830;7.210;2023-02-03T13:08:45;101780.38;;;11.00;82.37
12636;BME280;6383;50.830;7.210;2023-02-03T13:11:22;101782.81;;;11.02;82.37
12636;BME280;6383;50.830;7.210;2023-02-03T13:14:00;101785.00;;;11.05;82.76
12636;BME280;6383;50.830;7.210;2023-02-03T13:16:34;101786.66;;;11.06;82.25
12636;BME280;6383;50.830;7.210;2023-02-03T13:19:07;101797.53;;;11.06;82.05
12636;BME280;6383;50.830;7.210;2023-02-03T13:21:44;101795.63;;;11.06;82.27
12636;BME280;6383;50.830;7.210;2023-02-03T13:24:24;101794.56;;;11.07;82.19
12636;BME280;6383;50.830;7.210;2023-02-03T13:27:02;101790.75;;;11.08;82.59
12636;BME280;6383;50.830;7.210;2023-02-03T13:32:51;101784.75;;;11.06;82.78
12636;BME280;6383;50.830;7.210;2023-02-03T13:35:37;101789.91;;;11.03;82.97